sensor_id;sensor_type;location;lat;lon;timestamp;P1;durP1;ratioP1;P2;durP2;ratioP2
21862;SDS011;11096;51.338;12.524;2022-07-25T00:02:05;5.38;;;2.63;;
21862;SDS011;11096;51.338;12.524;2022-07-25T00:04:30;3.80;;;2.63;;
21862;SDS011;11096;51.338;12.524;2022-07-25T00:06:55;4.60;;;2.13;;
21862;SDS011;11096;51.338;12.524;2022-07-25T00:09:21;4.88;;;2.30;;
21862;SDS011;11096;51.338;12.524;2022-07-25T00:11:46;4.35;;;2.50;;
21862;SDS011;11096;51.338;12.524;2022-07-25T00:14:12;2.95;;;2.45;;
21862;SDS011;11096;51.338;12.524;2022-07-25T00:16:37;6.40;;;2.30;;
21862;SDS011;11096;51.338;12.524;2022-07-25T00:19:04;4.38;;;2.28;;
21862;SDS011;11096;51.338;12.524;2022-07-25T00:21:29;3.92;;;2.45;;
21862;SDS011;11096;51.338;12.524;2022-07-25T00:23:54;2.60;;;2.20;;
21862;SDS011;11096;51.338;12.524;2022-07-25T00:26:20;4.90;;;2.92;;
21862;SDS011;11096;51.338;12.524;2022-07-25T00:28:45;3.55;;;2.40;;
21862;SDS011;11096;51.338;12.524;2022-07-25T00:31:10;3.08;;;2.00;;
21862;SDS011;11096;51.338;12.524;2022-07-25T00:33:36;3.47;;;2.47;;
21862;SDS011;11096;51.338;12.524;2022-07-25T00:36:01;5.43;;;2.38;;
21862;SDS011;11096;51.338;12.524;2022-07-25T00:38:27;6.30;;;2.78;;
21862;SDS011;11096;51.338;12.524;2022-07-25T00:40:52;5.95;;;2.65;;
21862;SDS011;11096;51.338;12.524;2022-07-25T00:43:19;5.63;;;2.47;;
21862;SDS011;11096;51.338;12.524;2022-07-25T00:45:44;4.70;;;2.75;;
21862;SDS011;11096;51.338;12.524;2022-07-25T00:48:09;3.17;;;2.65;;
21862;SDS011;11096;51.338;12.524;2022-07-25T00:50:35;4.70;;;2.40;;
21862;SDS011;11096;51.338;12.524;2022-07-25T00:53:00;4.53;;;2.28;;
21862;SDS011;11096;51.338;12.524;2022-07-25T00:55:26;5.13;;;2.70;;
21862;SDS011;11096;51.338;12.524;2022-07-25T00:57:53;6.57;;;2.85;;
21862;SDS011;11096;51.338;12.524;2022-07-25T01:00:18;4.00;;;2.55;;
21862;SDS011;11096;51.338;12.524;2022-07-25T01:02:44;3.95;;;2.58;;
21862;SDS011;11096;51.338;12.524;2022-07-25T01:05:09;5.68;;;2.78;;
21862;SDS011;11096;51.338;12.524;2022-07-25T01:07:36;2.67;;;2.40;;
21862;SDS011;11096;51.338;12.524;2022-07-25T01:10:02;6.25;;;2.95;;
21862;SDS011;11096;51.338;12.524;2022-07-25T01:12:29;5.25;;;2.78;;
21862;SDS011;11096;51.338;12.524;2022-07-25T01:14:54;4.28;;;2.65;;
21862;SDS011;11096;51.338;12.524;2022-07-25T01:17:21;2.55;;;2.28;;
21862;SDS011;11096;51.338;12.524;2022-07-25T01:19:46;7.85;;;2.25;;
21862;SDS011;11096;51.338;12.524;2022-07-25T01:22:11;3.42;;;2.60;;
21862;SDS011;11096;51.338;12.524;2022-07-25T01:24:37;2.95;;;2.75;;
21862;SDS011;11096;51.338;12.524;2022-07-25T01:27:03;4.50;;;3.00;;
21862;SDS011;11096;51.338;12.524;2022-07-25T01:29:28;5.50;;;2.90;;
21862;SDS011;11096;51.338;12.524;2022-07-25T01:31:54;6.60;;;3.00;;
21862;SDS011;11096;51.338;12.524;2022-07-25T01:34:19;4.10;;;3.20;;
21862;SDS011;11096;51.338;12.524;2022-07-25T01:36:44;6.22;;;2.70;;
21862;SDS011;11096;51.338;12.524;2022-07-25T01:39:10;4.28;;;2.95;;
21862;SDS011;11096;51.338;12.524;2022-07-25T01:41:35;3.88;;;2.40;;
21862;SDS011;11096;51.338;12.524;2022-07-25T01:44:01;3.30;;;3.00;;
21862;SDS011;11096;51.338;12.524;2022-07-25T01:46:27;6.97;;;2.95;;
21862;SDS011;11096;51.338;12.524;2022-07-25T01:48:52;5.68;;;2.90;;
21862;SDS011;11096;51.338;12.524;2022-07-25T01:51:17;4.85;;;3.22;;
21862;SDS011;11096;51.338;12.524;2022-07-25T01:53:43;5.30;;;3.03;;
21862;SDS011;11096;51.338;12.524;2022-07-25T01:56:08;4.13;;;2.75;;
21862;SDS011;11096;51.338;12.524;2022-07-25T01:58:33;4.70;;;3.33;;
21862;SDS011;11096;51.338;12.524;2022-07-25T02:00:59;8.02;;;3.22;;
21862;SDS011;11096;51.338;12.524;2022-07-25T02:03:24;8.98;;;3.33;;
21862;SDS011;11096;51.338;12.524;2022-07-25T02:05:59;5.43;;;3.05;;
21862;SDS011;11096;51.338;12.524;2022-07-25T02:08:27;3.90;;;2.97;;
21862;SDS011;11096;51.338;12.524;2022-07-25T02:10:53;7.75;;;3.05;;
21862;SDS011;11096;51.338;12.524;2022-07-25T02:13:19;5.10;;;3.00;;
21862;SDS011;11096;51.338;12.524;2022-07-25T02:15:44;4.72;;;3.00;;
21862;SDS011;11096;51.338;12.524;2022-07-25T02:18:10;6.97;;;3.22;;
21862;SDS011;11096;51.338;12.524;2022-07-25T02:20:35;7.95;;;3.47;;
21862;SDS011;11096;51.338;12.524;2022-07-25T02:23:01;5.18;;;4.10;;
21862;SDS011;11096;51.338;12.524;2022-07-25T02:25:28;5.47;;;3.28;;
21862;SDS011;11096;51.338;12.524;2022-07-25T02:27:53;7.95;;;4.07;;
21862;SDS011;11096;51.338;12.524;2022-07-25T02:30:19;5.28;;;3.67;;
21862;SDS011;11096;51.338;12.524;2022-07-25T02:32:44;5.10;;;3.40;;
21862;SDS011;11096;51.338;12.524;2022-07-25T02:35:09;5.15;;;3.70;;
21862;SDS011;11096;51.338;12.524;2022-07-25T02:37:35;4.97;;;3.70;;
21862;SDS011;11096;51.338;12.524;2022-07-25T02:40:00;4.68;;;3.35;;
21862;SDS011;11096;51.338;12.524;2022-07-25T02:42:25;5.78;;;3.38;;
21862;SDS011;11096;51.338;12.524;2022-07-25T02:44:51;4.57;;;3.63;;
21862;SDS011;11096;51.338;12.524;2022-07-25T02:47:17;4.47;;;3.42;;
21862;SDS011;11096;51.338;12.524;2022-07-25T02:49:42;4.47;;;3.50;;
21862;SDS011;11096;51.338;12.524;2022-07-25T02:52:07;5.25;;;3.60;;
21862;SDS011;11096;51.338;12.524;2022-07-25T02:54:33;7.00;;;4.07;;
21862;SDS011;11096;51.338;12.524;2022-07-25T02:56:58;6.30;;;3.88;;
21862;SDS011;11096;51.338;12.524;2022-07-25T02:59:23;5.47;;;3.80;;
21862;SDS011;11096;51.338;12.524;2022-07-25T03:01:49;4.25;;;3.85;;
21862;SDS011;11096;51.338;12.524;2022-07-25T03:04:14;7.75;;;4.47;;
21862;SDS011;11096;51.338;12.524;2022-07-25T03:06:40;6.45;;;4.18;;
21862;SDS011;11096;51.338;12.524;2022-07-25T03:09:05;5.78;;;4.55;;
21862;SDS011;11096;51.338;12.524;2022-07-25T03:11:31;4.60;;;4.10;;
21862;SDS011;11096;51.338;12.524;2022-07-25T03:13:57;5.65;;;4.22;;
21862;SDS011;11096;51.338;12.524;2022-07-25T03:16:23;5.40;;;4.50;;
21862;SDS011;11096;51.338;12.524;2022-07-25T03:18:48;5.88;;;4.57;;
21862;SDS011;11096;51.338;12.524;2022-07-25T03:21:14;5.95;;;4.40;;
21862;SDS011;11096;51.338;12.524;2022-07-25T03:23:39;6.75;;;4.72;;
21862;SDS011;11096;51.338;12.524;2022-07-25T03:26:04;7.97;;;4.57;;
21862;SDS011;11096;51.338;12.524;2022-07-25T03:28:30;6.70;;;4.55;;
21862;SDS011;11096;51.338;12.524;2022-07-25T03:30:55;4.97;;;4.30;;
21862;SDS011;11096;51.338;12.524;2022-07-25T03:33:21;5.07;;;4.57;;
21862;SDS011;11096;51.338;12.524;2022-07-25T03:35:46;7.00;;;4.20;;
21862;SDS011;11096;51.338;12.524;2022-07-25T03:38:11;5.13;;;4.63;;
21862;SDS011;11096;51.338;12.524;2022-07-25T03:40:37;5.45;;;4.63;;
21862;SDS011;11096;51.338;12.524;2022-07-25T03:43:03;5.65;;;4.88;;
21862;SDS011;11096;51.338;12.524;2022-07-25T03:45:29;7.88;;;4.90;;
21862;SDS011;11096;51.338;12.524;2022-07-25T03:47:54;5.75;;;5.15;;
21862;SDS011;11096;51.338;12.524;2022-07-25T03:50:19;6.90;;;5.45;;
21862;SDS011;11096;51.338;12.524;2022-07-25T03:52:45;7.63;;;5.45;;
21862;SDS011;11096;51.338;12.524;2022-07-25T03:55:10;6.55;;;5.07;;
21862;SDS011;11096;51.338;12.524;2022-07-25T03:57:36;5.57;;;4.93;;
21862;SDS011;11096;51.338;12.524;2022-07-25T04:00:03;6.82;;;5.15;;
21862;SDS011;11096;51.338;12.524;2022-07-25T04:02:29;8.45;;;5.78;;
21862;SDS011;11096;51.338;12.524;2022-07-25T04:04:55;10.38;;;5.28;;
21862;SDS011;11096;51.338;12.524;2022-07-25T04:07:20;6.75;;;5.63;;
21862;SDS011;11096;51.338;12.524;2022-07-25T04:09:45;6.00;;;4.90;;
21862;SDS011;11096;51.338;12.524;2022-07-25T04:12:11;11.13;;;5.47;;
21862;SDS011;11096;51.338;12.524;2022-07-25T04:14:36;7.55;;;4.88;;
21862;SDS011;11096;51.338;12.524;2022-07-25T04:17:02;7.18;;;4.88;;
21862;SDS011;11096;51.338;12.524;2022-07-25T04:19:27;8.02;;;5.38;;
21862;SDS011;11096;51.338;12.524;2022-07-25T04:21:52;9.13;;;5.53;;
21862;SDS011;11096;51.338;12.524;2022-07-25T04:24:18;8.82;;;5.22;;
21862;SDS011;11096;51.338;12.524;2022-07-25T04:26:43;8.23;;;5.18;;
21862;SDS011;11096;51.338;12.524;2022-07-25T04:29:08;6.70;;;5.07;;
21862;SDS011;11096;51.338;12.524;2022-07-25T04:31:34;5.50;;;4.78;;
21862;SDS011;11096;51.338;12.524;2022-07-25T04:33:59;6.70;;;5.40;;
21862;SDS011;11096;51.338;12.524;2022-07-25T04:36:24;8.35;;;5.63;;
21862;SDS011;11096;51.338;12.524;2022-07-25T04:38:50;7.80;;;5.65;;
21862;SDS011;11096;51.338;12.524;2022-07-25T04:41:16;10.50;;;5.63;;
21862;SDS011;11096;51.338;12.524;2022-07-25T04:43:42;7.75;;;5.82;;
21862;SDS011;11096;51.338;12.524;2022-07-25T04:46:07;11.88;;;5.18;;
21862;SDS011;11096;51.338;12.524;2022-07-25T04:48:33;6.88;;;5.22;;
21862;SDS011;11096;51.338;12.524;2022-07-25T04:50:58;15.45;;;5.68;;
21862;SDS011;11096;51.338;12.524;2022-07-25T04:53:23;8.20;;;6.13;;
21862;SDS011;11096;51.338;12.524;2022-07-25T04:55:49;8.27;;;5.85;;
21862;SDS011;11096;51.338;12.524;2022-07-25T04:58:14;8.70;;;6.53;;
21862;SDS011;11096;51.338;12.524;2022-07-25T05:00:40;11.70;;;6.05;;
21862;SDS011;11096;51.338;12.524;2022-07-25T05:03:05;6.88;;;6.18;;
21862;SDS011;11096;51.338;12.524;2022-07-25T05:05:31;7.00;;;6.15;;
21862;SDS011;11096;51.338;12.524;2022-07-25T05:07:57;9.15;;;6.72;;
21862;SDS011;11096;51.338;12.524;2022-07-25T05:10:27;9.05;;;6.07;;
21862;SDS011;11096;51.338;12.524;2022-07-25T05:12:53;8.60;;;5.93;;
21862;SDS011;11096;51.338;12.524;2022-07-25T05:15:19;10.88;;;6.25;;
21862;SDS011;11096;51.338;12.524;2022-07-25T05:17:44;8.82;;;6.10;;
21862;SDS011;11096;51.338;12.524;2022-07-25T05:20:11;8.68;;;5.75;;
21862;SDS011;11096;51.338;12.524;2022-07-25T05:22:37;11.57;;;6.25;;
21862;SDS011;11096;51.338;12.524;2022-07-25T05:25:04;7.85;;;6.63;;
21862;SDS011;11096;51.338;12.524;2022-07-25T05:27:31;7.63;;;5.90;;
21862;SDS011;11096;51.338;12.524;2022-07-25T05:29:56;9.32;;;5.95;;
21862;SDS011;11096;51.338;12.524;2022-07-25T05:32:22;10.55;;;6.55;;
21862;SDS011;11096;51.338;12.524;2022-07-25T05:34:47;8.98;;;5.78;;
21862;SDS011;11096;51.338;12.524;2022-07-25T05:37:12;11.55;;;6.53;;
21862;SDS011;11096;51.338;12.524;2022-07-25T05:39:38;10.55;;;6.00;;
21862;SDS011;11096;51.338;12.524;2022-07-25T05:42:05;7.82;;;6.32;;
21862;SDS011;11096;51.338;12.524;2022-07-25T05:44:31;8.48;;;5.82;;
21862;SDS011;11096;51.338;12.524;2022-07-25T05:46:57;11.40;;;6.35;;
21862;SDS011;11096;51.338;12.524;2022-07-25T05:49:22;7.38;;;6.07;;
21862;SDS011;11096;51.338;12.524;2022-07-25T05:51:47;8.95;;;5.78;;
21862;SDS011;11096;51.338;12.524;2022-07-25T05:54:13;9.43;;;6.53;;
21862;SDS011;11096;51.338;12.524;2022-07-25T05:56:38;10.55;;;6.18;;
21862;SDS011;11096;51.338;12.524;2022-07-25T05:59:03;8.90;;;6.47;;
21862;SDS011;11096;51.338;12.524;2022-07-25T06:01:29;8.02;;;6.32;;
21862;SDS011;11096;51.338;12.524;2022-07-25T06:03:54;7.40;;;5.80;;
21862;SDS011;11096;51.338;12.524;2022-07-25T06:06:20;11.88;;;6.60;;
21862;SDS011;11096;51.338;12.524;2022-07-25T06:08:45;10.23;;;6.70;;
21862;SDS011;11096;51.338;12.524;2022-07-25T06:11:10;8.98;;;7.10;;
21862;SDS011;11096;51.338;12.524;2022-07-25T06:13:36;9.73;;;6.22;;
21862;SDS011;11096;51.338;12.524;2022-07-25T06:16:01;9.38;;;5.95;;
21862;SDS011;11096;51.338;12.524;2022-07-25T06:18:26;11.05;;;6.25;;
21862;SDS011;11096;51.338;12.524;2022-07-25T06:20:52;9.02;;;6.18;;
21862;SDS011;11096;51.338;12.524;2022-07-25T06:23:18;8.02;;;6.22;;
21862;SDS011;11096;51.338;12.524;2022-07-25T06:25:44;11.02;;;6.22;;
21862;SDS011;11096;51.338;12.524;2022-07-25T06:28:11;7.70;;;6.82;;
21862;SDS011;11096;51.338;12.524;2022-07-25T06:30:38;10.38;;;7.22;;
21862;SDS011;11096;51.338;12.524;2022-07-25T06:33:04;8.43;;;6.50;;
21862;SDS011;11096;51.338;12.524;2022-07-25T06:35:30;10.70;;;6.72;;
21862;SDS011;11096;51.338;12.524;2022-07-25T06:37:55;7.45;;;6.60;;
21862;SDS011;11096;51.338;12.524;2022-07-25T06:40:20;7.82;;;6.28;;
21862;SDS011;11096;51.338;12.524;2022-07-25T06:42:46;8.48;;;6.25;;
21862;SDS011;11096;51.338;12.524;2022-07-25T06:45:12;8.60;;;6.32;;
21862;SDS011;11096;51.338;12.524;2022-07-25T06:47:38;7.63;;;6.00;;
21862;SDS011;11096;51.338;12.524;2022-07-25T06:50:05;10.68;;;6.53;;
21862;SDS011;11096;51.338;12.524;2022-07-25T06:52:33;8.98;;;6.43;;
21862;SDS011;11096;51.338;12.524;2022-07-25T06:54:58;6.95;;;6.03;;
21862;SDS011;11096;51.338;12.524;2022-07-25T06:57:24;6.90;;;6.20;;
21862;SDS011;11096;51.338;12.524;2022-07-25T06:59:49;6.88;;;6.18;;
21862;SDS011;11096;51.338;12.524;2022-07-25T07:02:15;9.63;;;6.25;;
21862;SDS011;11096;51.338;12.524;2022-07-25T07:04:40;9.68;;;6.35;;
21862;SDS011;11096;51.338;12.524;2022-07-25T07:07:06;8.15;;;6.22;;
21862;SDS011;11096;51.338;12.524;2022-07-25T07:09:31;9.57;;;6.88;;
21862;SDS011;11096;51.338;12.524;2022-07-25T07:11:57;10.45;;;6.07;;
21862;SDS011;11096;51.338;12.524;2022-07-25T07:14:22;11.07;;;6.20;;
21862;SDS011;11096;51.338;12.524;2022-07-25T07:16:47;10.05;;;6.35;;
21862;SDS011;11096;51.338;12.524;2022-07-25T07:19:13;6.95;;;6.13;;
21862;SDS011;11096;51.338;12.524;2022-07-25T07:21:38;6.97;;;6.07;;
21862;SDS011;11096;51.338;12.524;2022-07-25T07:24:04;7.95;;;6.53;;
21862;SDS011;11096;51.338;12.524;2022-07-25T07:26:30;11.07;;;6.57;;
21862;SDS011;11096;51.338;12.524;2022-07-25T07:28:56;7.07;;;6.40;;
21862;SDS011;11096;51.338;12.524;2022-07-25T07:31:21;12.23;;;6.97;;
21862;SDS011;11096;51.338;12.524;2022-07-25T07:33:46;7.95;;;6.30;;
21862;SDS011;11096;51.338;12.524;2022-07-25T07:36:12;10.18;;;6.25;;
21862;SDS011;11096;51.338;12.524;2022-07-25T07:38:37;8.95;;;6.72;;
21862;SDS011;11096;51.338;12.524;2022-07-25T07:41:03;10.95;;;6.65;;
21862;SDS011;11096;51.338;12.524;2022-07-25T07:43:29;12.02;;;6.88;;
21862;SDS011;11096;51.338;12.524;2022-07-25T07:45:58;8.15;;;6.28;;
21862;SDS011;11096;51.338;12.524;2022-07-25T07:48:25;12.15;;;6.38;;
21862;SDS011;11096;51.338;12.524;2022-07-25T07:50:51;8.93;;;7.07;;
21862;SDS011;11096;51.338;12.524;2022-07-25T07:53:16;8.77;;;6.20;;
21862;SDS011;11096;51.338;12.524;2022-07-25T07:55:41;11.65;;;6.57;;
21862;SDS011;11096;51.338;12.524;2022-07-25T07:58:11;10.45;;;6.00;;
21862;SDS011;11096;51.338;12.524;2022-07-25T08:00:39;11.70;;;6.10;;
21862;SDS011;11096;51.338;12.524;2022-07-25T08:03:06;12.98;;;6.32;;
21862;SDS011;11096;51.338;12.524;2022-07-25T08:05:39;7.53;;;6.00;;
21862;SDS011;11096;51.338;12.524;2022-07-25T08:08:06;7.47;;;5.53;;
21862;SDS011;11096;51.338;12.524;2022-07-25T08:10:34;12.32;;;6.15;;
21862;SDS011;11096;51.338;12.524;2022-07-25T08:13:02;9.23;;;6.13;;
21862;SDS011;11096;51.338;12.524;2022-07-25T08:15:40;8.30;;;6.05;;
21862;SDS011;11096;51.338;12.524;2022-07-25T08:18:06;9.95;;;6.43;;
21862;SDS011;11096;51.338;12.524;2022-07-25T08:20:32;13.65;;;7.05;;
21862;SDS011;11096;51.338;12.524;2022-07-25T08:22:57;12.30;;;6.35;;
21862;SDS011;11096;51.338;12.524;2022-07-25T08:25:22;12.48;;;5.50;;
21862;SDS011;11096;51.338;12.524;2022-07-25T08:27:48;10.35;;;6.13;;
21862;SDS011;11096;51.338;12.524;2022-07-25T08:30:14;9.63;;;5.95;;
21862;SDS011;11096;51.338;12.524;2022-07-25T08:32:51;7.10;;;5.20;;
21862;SDS011;11096;51.338;12.524;2022-07-25T08:35:21;8.77;;;5.53;;
21862;SDS011;11096;51.338;12.524;2022-07-25T08:37:48;8.63;;;5.35;;
21862;SDS011;11096;51.338;12.524;2022-07-25T08:40:14;12.63;;;5.63;;
21862;SDS011;11096;51.338;12.524;2022-07-25T08:42:41;9.70;;;5.07;;
21862;SDS011;11096;51.338;12.524;2022-07-25T08:45:08;12.48;;;5.53;;
21862;SDS011;11096;51.338;12.524;2022-07-25T08:47:35;7.75;;;5.30;;
21862;SDS011;11096;51.338;12.524;2022-07-25T08:50:01;8.63;;;5.65;;
21862;SDS011;11096;51.338;12.524;2022-07-25T08:52:28;8.75;;;4.88;;
21862;SDS011;11096;51.338;12.524;2022-07-25T08:54:55;11.38;;;5.47;;
21862;SDS011;11096;51.338;12.524;2022-07-25T08:57:21;7.60;;;5.25;;
21862;SDS011;11096;51.338;12.524;2022-07-25T08:59:47;5.82;;;5.10;;
21862;SDS011;11096;51.338;12.524;2022-07-25T09:02:12;6.50;;;5.50;;
21862;SDS011;11096;51.338;12.524;2022-07-25T09:04:39;6.57;;;5.18;;
21862;SDS011;11096;51.338;12.524;2022-07-25T09:07:04;8.40;;;5.53;;
21862;SDS011;11096;51.338;12.524;2022-07-25T09:09:32;6.30;;;5.50;;
21862;SDS011;11096;51.338;12.524;2022-07-25T09:11:59;8.10;;;5.30;;
21862;SDS011;11096;51.338;12.524;2022-07-25T09:14:25;5.97;;;5.25;;
21862;SDS011;11096;51.338;12.524;2022-07-25T09:16:53;9.10;;;5.18;;
21862;SDS011;11096;51.338;12.524;2022-07-25T09:19:20;6.57;;;5.03;;
21862;SDS011;11096;51.338;12.524;2022-07-25T09:22:03;9.15;;;5.63;;
21862;SDS011;11096;51.338;12.524;2022-07-25T09:24:30;6.47;;;5.40;;
21862;SDS011;11096;51.338;12.524;2022-07-25T09:26:57;8.18;;;5.47;;
21862;SDS011;11096;51.338;12.524;2022-07-25T09:29:25;9.10;;;5.93;;
21862;SDS011;11096;51.338;12.524;2022-07-25T09:31:58;9.85;;;5.70;;
21862;SDS011;11096;51.338;12.524;2022-07-25T09:34:32;52.85;;;7.82;;
21862;SDS011;11096;51.338;12.524;2022-07-25T09:37:04;10.45;;;5.57;;
21862;SDS011;11096;51.338;12.524;2022-07-25T09:39:32;10.88;;;5.30;;
21862;SDS011;11096;51.338;12.524;2022-07-25T09:42:20;14.57;;;6.00;;
21862;SDS011;11096;51.338;12.524;2022-07-25T09:47:23;111.40;;;11.30;;
21862;SDS011;11096;51.338;12.524;2022-07-25T09:49:49;159.77;;;12.57;;
21862;SDS011;11096;51.338;12.524;2022-07-25T09:52:16;88.25;;;9.93;;
21862;SDS011;11096;51.338;12.524;2022-07-25T09:54:41;129.68;;;10.68;;
21862;SDS011;11096;51.338;12.524;2022-07-25T09:57:07;7.07;;;5.82;;
21862;SDS011;11096;51.338;12.524;2022-07-25T09:59:33;11.10;;;5.38;;
21862;SDS011;11096;51.338;12.524;2022-07-25T10:02:02;16.60;;;5.93;;
21862;SDS011;11096;51.338;12.524;2022-07-25T10:07:11;7.55;;;5.07;;
21862;SDS011;11096;51.338;12.524;2022-07-25T10:09:49;5.93;;;5.25;;
21862;SDS011;11096;51.338;12.524;2022-07-25T10:12:20;8.82;;;5.20;;
21862;SDS011;11096;51.338;12.524;2022-07-25T10:17:30;5.68;;;5.10;;
21862;SDS011;11096;51.338;12.524;2022-07-25T10:19:55;11.15;;;5.13;;
21862;SDS011;11096;51.338;12.524;2022-07-25T10:22:21;10.27;;;5.50;;
21862;SDS011;11096;51.338;12.524;2022-07-25T10:24:46;6.38;;;4.97;;
21862;SDS011;11096;51.338;12.524;2022-07-25T10:27:13;8.65;;;5.47;;
21862;SDS011;11096;51.338;12.524;2022-07-25T10:29:49;6.35;;;5.03;;
21862;SDS011;11096;51.338;12.524;2022-07-25T10:32:17;7.40;;;5.75;;
21862;SDS011;11096;51.338;12.524;2022-07-25T10:34:50;7.75;;;5.03;;
21862;SDS011;11096;51.338;12.524;2022-07-25T10:37:17;6.30;;;5.22;;
21862;SDS011;11096;51.338;12.524;2022-07-25T10:39:45;4.93;;;4.50;;
21862;SDS011;11096;51.338;12.524;2022-07-25T10:42:16;5.82;;;5.20;;
21862;SDS011;11096;51.338;12.524;2022-07-25T10:44:47;6.22;;;5.10;;
21862;SDS011;11096;51.338;12.524;2022-07-25T10:47:16;10.30;;;4.90;;
21862;SDS011;11096;51.338;12.524;2022-07-25T10:49:42;9.93;;;5.70;;
21862;SDS011;11096;51.338;12.524;2022-07-25T10:52:13;7.82;;;4.97;;
21862;SDS011;11096;51.338;12.524;2022-07-25T10:54:41;10.02;;;5.43;;
21862;SDS011;11096;51.338;12.524;2022-07-25T10:57:17;7.97;;;5.40;;
21862;SDS011;11096;51.338;12.524;2022-07-25T10:59:42;8.68;;;5.15;;
21862;SDS011;11096;51.338;12.524;2022-07-25T11:02:08;12.57;;;5.57;;
21862;SDS011;11096;51.338;12.524;2022-07-25T11:04:40;5.78;;;5.18;;
21862;SDS011;11096;51.338;12.524;2022-07-25T11:07:10;5.78;;;5.20;;
21862;SDS011;11096;51.338;12.524;2022-07-25T11:09:42;9.60;;;5.95;;
21862;SDS011;11096;51.338;12.524;2022-07-25T11:12:08;7.60;;;4.85;;
21862;SDS011;11096;51.338;12.524;2022-07-25T11:14:39;8.15;;;4.97;;
21862;SDS011;11096;51.338;12.524;2022-07-25T11:17:47;7.72;;;4.70;;
21862;SDS011;11096;51.338;12.524;2022-07-25T11:19:59;5.50;;;4.93;;
21862;SDS011;11096;51.338;12.524;2022-07-25T11:22:25;9.10;;;4.72;;
21862;SDS011;11096;51.338;12.524;2022-07-25T11:24:52;8.38;;;5.70;;
21862;SDS011;11096;51.338;12.524;2022-07-25T11:27:25;6.20;;;4.88;;
21862;SDS011;11096;51.338;12.524;2022-07-25T11:32:38;6.63;;;4.88;;
21862;SDS011;11096;51.338;12.524;2022-07-25T11:35:06;6.10;;;4.72;;
21862;SDS011;11096;51.338;12.524;2022-07-25T11:37:34;7.07;;;4.75;;
21862;SDS011;11096;51.338;12.524;2022-07-25T11:40:02;6.43;;;4.57;;
21862;SDS011;11096;51.338;12.524;2022-07-25T11:42:37;5.55;;;5.05;;
21862;SDS011;11096;51.338;12.524;2022-07-25T11:48:08;9.23;;;5.10;;
21862;SDS011;11096;51.338;12.524;2022-07-25T11:50:35;8.98;;;5.15;;
21862;SDS011;11096;51.338;12.524;2022-07-25T11:53:04;7.13;;;4.40;;
21862;SDS011;11096;51.338;12.524;2022-07-25T11:55:33;6.13;;;4.60;;
21862;SDS011;11096;51.338;12.524;2022-07-25T11:58:09;8.98;;;4.53;;
21862;SDS011;11096;51.338;12.524;2022-07-25T12:00:41;7.57;;;4.63;;
21862;SDS011;11096;51.338;12.524;2022-07-25T12:05:34;6.38;;;4.93;;
21862;SDS011;11096;51.338;12.524;2022-07-25T12:10:35;10.90;;;4.80;;
21862;SDS011;11096;51.338;12.524;2022-07-25T12:13:02;5.95;;;4.53;;
21862;SDS011;11096;51.338;12.524;2022-07-25T12:15:34;6.82;;;4.45;;
21862;SDS011;11096;51.338;12.524;2022-07-25T12:18:01;5.55;;;4.90;;
21862;SDS011;11096;51.338;12.524;2022-07-25T12:20:30;6.68;;;4.30;;
21862;SDS011;11096;51.338;12.524;2022-07-25T12:22:58;6.65;;;4.72;;
21862;SDS011;11096;51.338;12.524;2022-07-25T12:25:26;7.05;;;4.35;;
21862;SDS011;11096;51.338;12.524;2022-07-25T12:27:52;10.65;;;4.75;;
21862;SDS011;11096;51.338;12.524;2022-07-25T12:30:18;4.88;;;4.30;;
21862;SDS011;11096;51.338;12.524;2022-07-25T12:32:43;6.20;;;4.55;;
21862;SDS011;11096;51.338;12.524;2022-07-25T12:35:09;5.20;;;4.40;;
21862;SDS011;11096;51.338;12.524;2022-07-25T12:37:37;7.82;;;4.95;;
21862;SDS011;11096;51.338;12.524;2022-07-25T12:40:04;12.40;;;5.38;;
21862;SDS011;11096;51.338;12.524;2022-07-25T12:42:30;7.25;;;4.97;;
21862;SDS011;11096;51.338;12.524;2022-07-25T12:44:55;7.10;;;4.30;;
21862;SDS011;11096;51.338;12.524;2022-07-25T12:47:21;9.73;;;5.07;;
21862;SDS011;11096;51.338;12.524;2022-07-25T12:49:47;7.72;;;4.60;;
21862;SDS011;11096;51.338;12.524;2022-07-25T12:52:13;6.22;;;4.65;;
21862;SDS011;11096;51.338;12.524;2022-07-25T12:54:38;5.72;;;4.40;;
21862;SDS011;11096;51.338;12.524;2022-07-25T12:57:04;8.73;;;4.63;;
21862;SDS011;11096;51.338;12.524;2022-07-25T12:59:29;7.18;;;4.72;;
21862;SDS011;11096;51.338;12.524;2022-07-25T13:01:55;7.10;;;4.00;;
21862;SDS011;11096;51.338;12.524;2022-07-25T13:04:21;8.00;;;4.03;;
21862;SDS011;11096;51.338;12.524;2022-07-25T13:06:46;6.32;;;4.28;;
21862;SDS011;11096;51.338;12.524;2022-07-25T13:09:11;4.88;;;4.05;;
21862;SDS011;11096;51.338;12.524;2022-07-25T13:11:37;6.82;;;4.65;;
21862;SDS011;11096;51.338;12.524;2022-07-25T13:14:02;4.50;;;4.10;;
21862;SDS011;11096;51.338;12.524;2022-07-25T13:16:28;6.00;;;4.20;;
21862;SDS011;11096;51.338;12.524;2022-07-25T13:18:53;7.85;;;4.22;;
21862;SDS011;11096;51.338;12.524;2022-07-25T13:21:18;4.72;;;4.28;;
21862;SDS011;11096;51.338;12.524;2022-07-25T13:23:44;5.57;;;5.00;;
21862;SDS011;11096;51.338;12.524;2022-07-25T13:26:10;7.82;;;4.82;;
21862;SDS011;11096;51.338;12.524;2022-07-25T13:28:35;7.45;;;4.78;;
21862;SDS011;11096;51.338;12.524;2022-07-25T13:31:01;7.03;;;4.68;;
21862;SDS011;11096;51.338;12.524;2022-07-25T13:33:27;7.18;;;4.40;;
21862;SDS011;11096;51.338;12.524;2022-07-25T13:35:52;5.53;;;4.32;;
21862;SDS011;11096;51.338;12.524;2022-07-25T13:38:18;5.30;;;4.40;;
21862;SDS011;11096;51.338;12.524;2022-07-25T13:40:43;5.65;;;4.55;;
21862;SDS011;11096;51.338;12.524;2022-07-25T13:43:09;5.63;;;4.65;;
21862;SDS011;11096;51.338;12.524;2022-07-25T13:45:35;6.75;;;4.53;;
21862;SDS011;11096;51.338;12.524;2022-07-25T13:48:01;216.13;;;15.02;;
21862;SDS011;11096;51.338;12.524;2022-07-25T13:50:27;7.93;;;4.57;;
21862;SDS011;11096;51.338;12.524;2022-07-25T13:52:52;6.47;;;4.90;;
21862;SDS011;11096;51.338;12.524;2022-07-25T13:55:21;6.45;;;4.25;;
21862;SDS011;11096;51.338;12.524;2022-07-25T13:57:46;11.25;;;5.70;;
21862;SDS011;11096;51.338;12.524;2022-07-25T14:00:12;7.70;;;4.47;;
21862;SDS011;11096;51.338;12.524;2022-07-25T14:02:37;7.18;;;5.10;;
21862;SDS011;11096;51.338;12.524;2022-07-25T14:05:03;6.35;;;4.88;;
21862;SDS011;11096;51.338;12.524;2022-07-25T14:07:28;8.30;;;4.80;;
21862;SDS011;11096;51.338;12.524;2022-07-25T14:09:54;5.30;;;4.25;;
21862;SDS011;11096;51.338;12.524;2022-07-25T14:12:19;5.72;;;4.60;;
21862;SDS011;11096;51.338;12.524;2022-07-25T14:14:45;7.35;;;4.63;;
21862;SDS011;11096;51.338;12.524;2022-07-25T14:17:10;6.13;;;4.38;;
21862;SDS011;11096;51.338;12.524;2022-07-25T14:19:36;5.10;;;4.63;;
21862;SDS011;11096;51.338;12.524;2022-07-25T14:22:01;5.68;;;4.20;;
21862;SDS011;11096;51.338;12.524;2022-07-25T14:24:26;5.47;;;4.32;;
21862;SDS011;11096;51.338;12.524;2022-07-25T14:26:52;5.63;;;4.60;;
21862;SDS011;11096;51.338;12.524;2022-07-25T14:29:19;11.48;;;4.40;;
21862;SDS011;11096;51.338;12.524;2022-07-25T14:31:44;9.90;;;5.10;;
21862;SDS011;11096;51.338;12.524;2022-07-25T14:34:10;8.20;;;4.65;;
21862;SDS011;11096;51.338;12.524;2022-07-25T14:36:35;5.47;;;4.53;;
21862;SDS011;11096;51.338;12.524;2022-07-25T14:39:02;6.38;;;4.80;;
21862;SDS011;11096;51.338;12.524;2022-07-25T14:41:28;7.10;;;5.10;;
21862;SDS011;11096;51.338;12.524;2022-07-25T14:43:53;5.68;;;4.70;;
21862;SDS011;11096;51.338;12.524;2022-07-25T14:46:18;7.78;;;4.55;;